createdAt,value
2015-12-24T00:00:49.432Z,1018.6
2015-12-24T00:01:49.514Z,1018.8
2015-12-24T00:02:49.437Z,1018.8
2015-12-24T00:03:49.393Z,1018.5
2015-12-24T00:04:49.350Z,1018.7
2015-12-24T00:05:49.274Z,1018.6
2015-12-24T00:06:49.230Z,1018.5
2015-12-24T00:07:49.169Z,1018.6
2015-12-24T00:08:49.188Z,1018.6
2015-12-24T00:09:49.113Z,1018.6
2015-12-24T00:10:49.022Z,1018.7
2015-12-24T00:11:49.181Z,1018.6
2015-12-24T00:12:48.918Z,1018.7
2015-12-24T00:13:48.858Z,1018.5
2015-12-24T00:14:48.799Z,1018.6
2015-12-24T00:15:48.019Z,1018.6
2015-12-24T00:16:48.680Z,1018.6
2015-12-24T00:17:48.822Z,1018.5
2015-12-24T00:18:48.560Z,1018.6
2015-12-24T00:19:48.516Z,1018.6
2015-12-24T00:20:48.690Z,1018.6
2015-12-24T00:21:48.411Z,1018.5
2015-12-24T00:22:48.335Z,1018.5
2015-12-24T00:23:48.526Z,1018.5
2015-12-24T00:24:48.216Z,1018.6
2015-12-24T00:25:48.188Z,1018.5
2015-12-24T00:26:48.127Z,1018.6
2015-12-24T00:27:48.303Z,1018.5
2015-12-24T00:28:48.024Z,1018.5
2015-12-24T00:29:48.183Z,1018.5
2015-12-24T00:30:47.920Z,1018.4
2015-12-24T00:31:47.845Z,1018.4
2015-12-24T00:32:47.785Z,1018.5
2015-12-24T00:33:47.757Z,1018.5
2015-12-24T00:34:47.744Z,1018.4
2015-12-24T00:35:47.622Z,1018.4
2015-12-24T00:36:47.562Z,1018.5
2015-12-24T00:37:47.752Z,1018.5
2015-12-24T00:38:47.489Z,1018.5
2015-12-24T00:39:47.398Z,1018.5
2015-12-24T00:40:47.354Z,1018.5
2015-12-24T00:41:47.294Z,1018.4
2015-12-24T00:42:47.251Z,1018.4
2015-12-24T00:43:47.172Z,1018.5
2015-12-24T00:44:47.128Z,1018.4
2015-12-24T00:45:47.099Z,1018.5
2015-12-24T00:46:47.055Z,1018.5
2015-12-24T00:47:46.964Z,1018.5
2015-12-24T00:48:46.904Z,1018.5
2015-12-24T00:49:46.861Z,1018.5
2015-12-24T00:50:46.801Z,1018.5
2015-12-24T00:51:46.726Z,1018.4
2015-12-24T00:52:46.900Z,1018.5
2015-12-24T00:53:46.621Z,1018.5
2015-12-24T00:55:46.502Z,1018.5
2015-12-24T00:56:46.457Z,1018.5
2015-12-24T00:57:46.414Z,1018.4
2015-12-24T00:58:46.338Z,1018.5
2015-12-24T00:59:46.295Z,1018.4
2015-12-24T01:00:46.250Z,1018.6
2015-12-24T01:01:46.190Z,1018.5
2015-12-24T01:02:46.146Z,1018.5
2015-12-24T01:03:46.133Z,1018.3
2015-12-24T01:04:46.010Z,1018.4
2015-12-24T01:05:45.967Z,1018.3
2015-12-24T01:06:45.954Z,1018.4
2015-12-24T01:07:46.081Z,1018.3
2015-12-24T01:08:45.803Z,1018.4
2015-12-24T01:09:45.758Z,1018.4
2015-12-24T01:10:45.683Z,1018.5
2015-12-24T01:11:45.639Z,1018.5
2015-12-24T01:12:45.611Z,1018.5
2015-12-24T01:13:45.551Z,1018.5
2015-12-24T01:14:45.475Z,1018.4
2015-12-24T01:15:45.416Z,1018.4
2015-12-24T01:16:45.356Z,1018.3
2015-12-24T01:17:45.546Z,1018.3
2015-12-24T01:18:45.252Z,1018.2
2015-12-24T01:19:45.192Z,1018.4
2015-12-24T01:20:45.148Z,1018.5
2015-12-24T01:21:45.088Z,1018.4
2015-12-24T01:22:45.029Z,1018.5
2015-12-24T01:23:45.016Z,1018.3
2015-12-24T01:24:44.924Z,1018.4
2015-12-24T01:25:44.896Z,1018.3
2015-12-24T01:26:44.853Z,1018.3
2015-12-24T01:27:44.980Z,1018.3
2015-12-24T01:28:44.919Z,1018.4
2015-12-24T01:29:44.673Z,1018.2
2015-12-24T01:30:44.597Z,1018.3
2015-12-24T01:31:44.788Z,1018.3
2015-12-24T01:32:44.478Z,1018.4
2015-12-24T01:33:44.481Z,1018.4
2015-12-24T01:34:44.375Z,1018.4
2015-12-24T01:35:44.329Z,1018.4
2015-12-24T01:36:44.270Z,1018.5
2015-12-24T01:37:44.273Z,1018.3
2015-12-24T01:38:44.163Z,1018.4
2015-12-24T01:39:44.088Z,1018.3
2015-12-24T01:40:43.887Z,1018.5
2015-12-24T01:41:43.984Z,1018.4
2015-12-24T01:42:44.002Z,1018.4
2015-12-24T01:43:43.866Z,1018.2
2015-12-24T01:44:43.868Z,1018.3
2015-12-24T01:45:43.010Z,1018.2
2015-12-24T01:46:43.701Z,1018.3
2015-12-24T01:47:43.657Z,1018.2
2015-12-24T01:48:43.613Z,1018.3
2015-12-24T01:49:43.599Z,1018.2
2015-12-24T01:50:43.494Z,1018.2
2015-12-24T01:51:43.434Z,1018.2
2015-12-24T01:52:42.624Z,1018.2
2015-12-24T01:53:43.190Z,1018.2
2015-12-24T01:54:43.317Z,1018.2
2015-12-24T01:55:43.195Z,1018.2
2015-12-24T01:56:43.134Z,1018.2
2015-12-24T01:57:43.076Z,1018.3
2015-12-24T01:58:43.031Z,1018.2
2015-12-24T01:59:43.002Z,1018.2
2015-12-24T02:00:42.926Z,1018.2
2015-12-24T02:01:43.101Z,1018.2
2015-12-24T02:02:42.838Z,1018.1
2015-12-24T02:03:42.748Z,1018.2
2015-12-24T02:04:42.907Z,1018.1
2015-12-24T02:05:42.675Z,1018.1
2015-12-24T02:06:42.584Z,1018.2
2015-12-24T02:07:42.509Z,1018.1
2015-12-24T02:08:42.464Z,1018.2
2015-12-24T02:09:42.654Z,1018.2
2015-12-24T02:10:42.361Z,1018.2
2015-12-24T02:11:42.331Z,1018.1
2015-12-24T02:12:42.242Z,1018
2015-12-24T02:13:42.182Z,1018.1
2015-12-24T02:14:42.122Z,1018
2015-12-24T02:15:42.092Z,1018.1
2015-12-24T02:16:42.018Z,1018.2
2015-12-24T02:17:41.959Z,1018.2
2015-12-24T02:18:41.899Z,1018.1
2015-12-24T02:19:41.839Z,1018.1
2015-12-24T02:20:41.779Z,1018.1
2015-12-24T02:21:41.922Z,1018.1
2015-12-24T02:22:41.675Z,1018
2015-12-24T02:23:41.614Z,1018.1
2015-12-24T02:24:41.587Z,1018
2015-12-24T02:25:41.730Z,1018
2015-12-24T02:26:41.701Z,1018.1
2015-12-24T02:27:41.389Z,1018
2015-12-24T02:28:41.361Z,1018
2015-12-24T02:29:41.300Z,1018
2015-12-24T02:30:41.413Z,1018.1
2015-12-24T02:31:41.400Z,1017.9
2015-12-24T02:32:41.105Z,1018
2015-12-24T02:33:41.046Z,1017.9
2015-12-24T02:34:40.987Z,1018
2015-12-24T02:35:40.958Z,1017.9
2015-12-24T02:36:40.914Z,1017.9
2015-12-24T02:37:40.823Z,1017.9
2015-12-24T02:38:40.779Z,1018
2015-12-24T02:39:40.719Z,1018
2015-12-24T02:40:40.675Z,1017.9
2015-12-24T02:41:40.599Z,1017.9
2015-12-24T02:42:40.586Z,1018
2015-12-24T02:43:40.494Z,1018
2015-12-24T02:44:40.467Z,1018
2015-12-24T02:45:40.391Z,1018
2015-12-24T02:46:40.316Z,1018.1
2015-12-24T02:47:40.288Z,1018
2015-12-24T02:48:40.228Z,1017.9
2015-12-24T02:49:40.152Z,1018
2015-12-24T02:50:40.546Z,1017.9
2015-12-24T02:51:40.048Z,1017.8
2015-12-24T02:52:40.004Z,1017.9
2015-12-24T02:53:39.944Z,1017.8
2015-12-24T02:54:39.916Z,1017.9
2015-12-24T02:55:39.840Z,1017.8
2015-12-24T02:56:39.843Z,1018
2015-12-24T02:57:39.721Z,1017.9
2015-12-24T02:58:39.661Z,1017.8
2015-12-24T02:59:39.601Z,1017.8
2015-12-24T03:00:39.573Z,1017.8
2015-12-24T03:01:39.512Z,1018
2015-12-24T03:02:39.437Z,1017.8
2015-12-24T03:03:39.378Z,1017.8
2015-12-24T03:04:39.334Z,1017.8
2015-12-24T03:05:39.273Z,1017.9
2015-12-24T03:06:39.214Z,1017.8
2015-12-24T03:07:38.389Z,1017.8
2015-12-24T03:08:39.110Z,1017.8
2015-12-24T03:09:39.065Z,1017.8
2015-12-24T03:10:38.990Z,1017.8
2015-12-24T03:11:38.931Z,1017.8
2015-12-24T03:12:38.886Z,1017.8
2015-12-24T03:13:38.842Z,1017.7
2015-12-24T03:14:38.048Z,1017.8
2015-12-24T03:15:38.723Z,1017.7
2015-12-24T03:16:38.663Z,1017.8
2015-12-24T03:17:38.619Z,1017.8
2015-12-24T03:18:38.544Z,1017.8
2015-12-24T03:19:38.484Z,1017.8
2015-12-24T03:20:38.470Z,1017.9
2015-12-24T03:21:38.395Z,1017.9
2015-12-24T03:22:38.336Z,1017.8
2015-12-24T03:23:38.276Z,1017.8
2015-12-24T03:24:38.419Z,1017.9
2015-12-24T03:25:38.172Z,1018
2015-12-24T03:26:37.972Z,1018
2015-12-24T03:27:38.052Z,1017.9
2015-12-24T03:28:37.992Z,1017.9
2015-12-24T03:29:37.949Z,1017.8
2015-12-24T03:30:37.905Z,1017.9
2015-12-24T03:31:37.844Z,1017.7
2015-12-24T03:32:37.769Z,1017.8
2015-12-24T03:33:37.707Z,1017.8
2015-12-24T03:34:37.663Z,1017.7
2015-12-24T03:35:37.619Z,1017.7
2015-12-24T03:36:37.605Z,1017.8
2015-12-24T03:37:37.483Z,1017.9
2015-12-24T03:38:37.439Z,1017.7
2015-12-24T03:39:37.583Z,1017.7
2015-12-24T03:40:37.320Z,1017.8
2015-12-24T03:41:37.275Z,1017.7
2015-12-24T03:42:37.232Z,1017.8
2015-12-24T03:43:37.172Z,1017.7
2015-12-24T03:44:37.113Z,1017.8
2015-12-24T03:45:37.052Z,1017.7
2015-12-24T03:46:37.008Z,1017.7
2015-12-24T03:47:36.963Z,1017.8
2015-12-24T03:48:36.905Z,1017.6
2015-12-24T03:49:36.829Z,1017.7
2015-12-24T03:50:36.019Z,1017.8
2015-12-24T03:51:36.725Z,1017.6
2015-12-24T03:52:36.665Z,1017.7
2015-12-24T03:53:36.605Z,1017.8
2015-12-24T03:54:36.577Z,1017.6
2015-12-24T03:55:36.688Z,1017.6
2015-12-24T03:56:36.426Z,1017.6
2015-12-24T03:57:36.382Z,1017.7
2015-12-24T03:58:36.321Z,1017.5
2015-12-24T03:59:36.278Z,1017.6
2015-12-24T04:00:36.218Z,1017.6
2015-12-24T04:01:36.158Z,1017.6
2015-12-24T04:02:36.099Z,1017.7
2015-12-24T04:03:36.071Z,1017.7
2015-12-24T04:04:35.979Z,1017.5
2015-12-24T04:05:35.920Z,1017.6
2015-12-24T04:06:35.875Z,1017.6
2015-12-24T04:07:36.018Z,1017.6
2015-12-24T04:08:35.771Z,1017.5
2015-12-24T04:09:35.915Z,1017.6
2015-12-24T04:10:35.652Z,1017.6
2015-12-24T04:11:35.624Z,1017.5
2015-12-24T04:12:35.533Z,1017.6
2015-12-24T04:13:35.488Z,1017.6
2015-12-24T04:14:35.615Z,1017.8
2015-12-24T04:15:35.401Z,1017.5
2015-12-24T04:16:35.309Z,1017.6
2015-12-24T04:17:35.265Z,1017.6
2015-12-24T04:18:35.206Z,1017.6
2015-12-24T04:19:35.162Z,1017.7
2015-12-24T04:20:35.101Z,1017.7
2015-12-24T04:21:35.245Z,1017.7
2015-12-24T04:22:34.995Z,1017.6
2015-12-24T04:23:34.967Z,1017.6
2015-12-24T04:24:34.891Z,1017.7
2015-12-24T04:25:34.268Z,1017.6
2015-12-24T04:26:34.756Z,1017.6
2015-12-24T04:27:34.728Z,1017.6
2015-12-24T04:28:34.855Z,1017.6
2015-12-24T04:29:34.608Z,1017.6
2015-12-24T04:30:34.548Z,1017.7
2015-12-24T04:31:34.503Z,1017.5
2015-12-24T04:32:34.444Z,1017.6
2015-12-24T04:33:34.384Z,1017.5
2015-12-24T04:34:34.340Z,1017.6
2015-12-24T04:35:34.281Z,1017.7
2015-12-24T04:36:34.455Z,1017.6
2015-12-24T04:37:34.161Z,1017.4
2015-12-24T04:38:34.100Z,1017.4
2015-12-24T04:39:34.042Z,1017.5
2015-12-24T04:40:34.028Z,1017.5
2015-12-24T04:41:33.969Z,1017.3
2015-12-24T04:42:34.081Z,1017.4
2015-12-24T04:43:33.833Z,1017.4
2015-12-24T04:44:33.789Z,1017.3
2015-12-24T04:45:33.714Z,1017.5
2015-12-24T04:46:33.669Z,1017.4
2015-12-24T04:47:33.610Z,1017.4
2015-12-24T04:48:33.550Z,1017.3
2015-12-24T04:49:33.693Z,1017.4
2015-12-24T04:50:33.430Z,1017.4
2015-12-24T04:51:33.589Z,1017.4
2015-12-24T04:52:33.327Z,1017.4
2015-12-24T04:53:33.267Z,1017.3
2015-12-24T04:54:33.222Z,1017.2
2015-12-24T04:55:33.163Z,1017.3
2015-12-24T04:56:33.290Z,1017.4
2015-12-24T04:57:33.043Z,1017.2
2015-12-24T04:58:32.983Z,1017.2
2015-12-24T04:59:32.940Z,1017.2
2015-12-24T05:00:33.099Z,1017.2
2015-12-24T05:01:32.867Z,1017.2
2015-12-24T05:02:32.620Z,1017.2
2015-12-24T05:03:32.716Z,1017.2
2015-12-24T05:04:32.657Z,1017.2
2015-12-24T05:05:32.597Z,1017.1
2015-12-24T05:06:32.881Z,1017
2015-12-24T05:07:32.508Z,1017.1
2015-12-24T05:08:32.449Z,1017.2
2015-12-24T05:09:32.374Z,1017.1
2015-12-24T05:10:32.532Z,1017
2015-12-24T05:11:32.282Z,1016.9
2015-12-24T05:12:32.223Z,1017.1
2015-12-24T05:13:32.397Z,1017
2015-12-24T05:14:32.104Z,1017
2015-12-24T05:15:32.043Z,1017.1
2015-12-24T05:16:31.843Z,1017.1
2015-12-24T05:17:31.923Z,1017
2015-12-24T05:18:31.957Z,1017
2015-12-24T05:19:31.008Z,1017
2015-12-24T05:20:31.776Z,1017.1
2015-12-24T05:21:31.716Z,1016.9
2015-12-24T05:22:31.657Z,1017
2015-12-24T05:23:31.596Z,1017.1
2015-12-24T05:24:31.537Z,1016.9
2015-12-24T05:25:31.493Z,1017.1
2015-12-24T05:26:31.448Z,1016.8
2015-12-24T05:27:31.404Z,1016.9
2015-12-24T05:28:31.392Z,1016.9
2015-12-24T05:29:31.285Z,1016.9
2015-12-24T05:30:31.788Z,1016.8
2015-12-24T05:31:31.196Z,1016.9
2015-12-24T05:32:31.293Z,1016.8
2015-12-24T05:33:31.045Z,1016.8
2015-12-24T05:34:31.283Z,1016.8
2015-12-24T05:35:30.942Z,1016.8
2015-12-24T05:36:31.007Z,1016.7
2015-12-24T05:37:30.838Z,1016.8
2015-12-24T05:38:31.090Z,1016.8
2015-12-24T05:39:30.718Z,1016.8
2015-12-24T05:40:30.659Z,1016.7
2015-12-24T05:41:30.615Z,1016.6
2015-12-24T05:42:30.539Z,1016.5
2015-12-24T05:43:30.620Z,1016.6
2015-12-24T05:44:30.435Z,1016.6
2015-12-24T05:45:30.375Z,1016.6
2015-12-24T05:46:29.551Z,1016.7
2015-12-24T05:47:30.272Z,1016.7
2015-12-24T05:48:30.212Z,1016.6
2015-12-24T05:49:30.167Z,1016.5
2015-12-24T05:50:30.092Z,1016.7
2015-12-24T05:51:30.064Z,1016.5
2015-12-24T05:52:29.988Z,1016.5
2015-12-24T05:53:29.928Z,1016.6
2015-12-24T05:54:30.103Z,1016.6
2015-12-24T05:55:29.809Z,1016.6
2015-12-24T05:56:29.765Z,1016.4
2015-12-24T05:57:29.706Z,1016.7
2015-12-24T05:58:29.643Z,1016.6
2015-12-24T05:59:29.911Z,1016.5
2015-12-24T06:00:29.570Z,1016.7
2015-12-24T06:01:29.479Z,1016.5
2015-12-24T06:02:29.419Z,1016.6
2015-12-24T06:03:29.344Z,1016.7
2015-12-24T06:04:29.628Z,1016.5
2015-12-24T06:05:29.256Z,1016.6
2015-12-24T06:06:29.165Z,1016.5
2015-12-24T06:07:29.137Z,1016.6
2015-12-24T06:08:29.061Z,1016.5
2015-12-24T06:09:29.033Z,1016.6
2015-12-24T06:10:28.973Z,1016.6
2015-12-24T06:11:28.929Z,1016.6
2015-12-24T06:12:29.275Z,1016.6
2015-12-24T06:13:28.934Z,1016.5
2015-12-24T06:14:28.765Z,1016.5
2015-12-24T06:15:28.721Z,1016.5
2015-12-24T06:16:28.630Z,1016.6
2015-12-24T06:17:28.586Z,1016.5
2015-12-24T06:18:28.510Z,1016.7
2015-12-24T06:19:28.450Z,1016.6
2015-12-24T06:20:28.407Z,1016.6
2015-12-24T06:21:28.362Z,1016.5
2015-12-24T06:22:28.349Z,1016.5
2015-12-24T06:23:28.383Z,1016.5
2015-12-24T06:24:28.199Z,1016.6
2015-12-24T06:25:28.170Z,1016.6
2015-12-24T06:26:28.830Z,1016.5
2015-12-24T06:27:28.847Z,1016.5
2015-12-24T06:28:27.929Z,1016.5
2015-12-24T06:29:27.885Z,1016.6
2015-12-24T06:30:28.028Z,1016.6
2015-12-24T06:31:27.749Z,1016.6
2015-12-24T06:32:27.705Z,1016.6
2015-12-24T06:33:27.676Z,1016.7
2015-12-24T06:34:27.680Z,1016.6
2015-12-24T06:35:27.635Z,1016.6
2015-12-24T06:36:27.482Z,1016.6
2015-12-24T06:37:27.437Z,1016.5
2015-12-24T06:38:28.082Z,1016.7
2015-12-24T06:39:27.615Z,1016.6
2015-12-24T06:40:27.258Z,1016.6
2015-12-24T06:41:27.230Z,1016.5
2015-12-24T06:42:27.185Z,1016.5
2015-12-24T06:43:27.813Z,1016.5
2015-12-24T06:44:27.235Z,1016.5
2015-12-24T06:45:26.987Z,1016.5
2015-12-24T06:46:26.928Z,1016.5
2015-12-24T06:47:27.103Z,1016.5
2015-12-24T06:48:41.342Z,1016.5
2015-12-24T06:49:26.826Z,1016.5
2015-12-24T06:50:26.814Z,1016.5
2015-12-24T06:51:26.739Z,1016.4
2015-12-24T06:52:26.663Z,1016.4
2015-12-24T06:53:26.557Z,1016.4
2015-12-24T06:54:27.029Z,1016.4
2015-12-24T06:55:26.422Z,1016.3
2015-12-24T06:56:26.346Z,1016.4
2015-12-24T06:57:26.599Z,1016.3
2015-12-24T06:58:26.509Z,1016.2
2015-12-24T06:59:26.745Z,1016.4
2015-12-24T07:00:26.154Z,1016.3
2015-12-24T07:01:26.110Z,1016.3
2015-12-24T07:02:26.035Z,1016.3
2015-12-24T07:03:25.959Z,1016.4
2015-12-24T07:04:26.009Z,1016.3
2015-12-24T07:05:25.949Z,1016.4
2015-12-24T07:06:25.873Z,1016.3
2015-12-24T07:07:25.751Z,1016.3
2015-12-24T07:08:25.707Z,1016.4
2015-12-24T07:09:25.726Z,1016.3
2015-12-24T07:10:25.587Z,1016.3
2015-12-24T07:11:25.528Z,1016.4
2015-12-24T07:12:25.655Z,1016.4
2015-12-24T07:13:25.393Z,1016.3
2015-12-24T07:14:25.381Z,1016.3
2015-12-24T07:15:25.305Z,1016.3
2015-12-24T07:16:25.229Z,1016.2
2015-12-24T07:17:25.186Z,1016.2
2015-12-24T07:18:25.156Z,1016.3
2015-12-24T07:19:25.081Z,1016.2
2015-12-24T07:20:25.084Z,1016.2
2015-12-24T07:21:25.197Z,1016.1
2015-12-24T07:22:25.105Z,1016.2
2015-12-24T07:23:24.874Z,1016.2
2015-12-24T07:24:24.876Z,1016.2
2015-12-24T07:25:24.769Z,1016.2
2015-12-24T07:26:24.694Z,1016.2
2015-12-24T07:27:24.619Z,1016.1
2015-12-24T07:28:24.558Z,1016.2
2015-12-24T07:29:24.547Z,1016.1
2015-12-24T07:30:24.469Z,1016.1
2015-12-24T07:31:24.439Z,1016
2015-12-24T07:32:24.333Z,1015.9
2015-12-24T07:33:24.273Z,1015.9
2015-12-24T07:34:24.229Z,1015.9
2015-12-24T07:35:24.200Z,1015.9
2015-12-24T07:36:24.110Z,1016
2015-12-24T07:37:24.080Z,1015.9
2015-12-24T07:38:24.005Z,1015.8
2015-12-24T07:39:23.961Z,1015.9
2015-12-24T07:40:23.902Z,1015.9
2015-12-24T07:41:23.826Z,1015.9
2015-12-24T07:42:23.767Z,1016.1
2015-12-24T07:43:23.738Z,1015.9
2015-12-24T07:44:23.663Z,1016
2015-12-24T07:45:23.603Z,1016.1
2015-12-24T07:46:23.746Z,1016
2015-12-24T07:47:23.500Z,1016
2015-12-24T07:48:23.455Z,1016.1
2015-12-24T07:49:23.396Z,1016
2015-12-24T07:50:23.367Z,1016.1
2015-12-24T07:51:23.292Z,1016
2015-12-24T07:52:23.263Z,1016
2015-12-24T07:53:23.172Z,1016
2015-12-24T07:54:23.347Z,1015.9
2015-12-24T07:55:23.069Z,1016
2015-12-24T07:56:23.008Z,1016
2015-12-24T07:57:22.999Z,1015.9
2015-12-24T07:58:22.862Z,1015.9
2015-12-24T07:59:23.022Z,1015.8
2015-12-24T08:00:22.760Z,1015.8
2015-12-24T08:01:22.717Z,1015.9
2015-12-24T08:02:22.573Z,1016
2015-12-24T08:03:22.571Z,1016
2015-12-24T08:04:22.460Z,1016
2015-12-24T08:05:22.394Z,1016
2015-12-24T08:06:22.346Z,1015.9
2015-12-24T08:07:22.284Z,1015.9
2015-12-24T08:08:22.284Z,1016
2015-12-24T08:09:22.457Z,1015.8
2015-12-24T08:10:22.115Z,1016
2015-12-24T08:11:22.663Z,1016.1
2015-12-24T08:12:22.023Z,1016
2015-12-24T08:13:22.104Z,1015.9
2015-12-24T08:14:21.887Z,1015.9
2015-12-24T08:15:22.312Z,1015.8
2015-12-24T08:16:21.797Z,1015.8
2015-12-24T08:17:21.719Z,1015.7
2015-12-24T08:18:21.659Z,1015.7
2015-12-24T08:19:21.599Z,1015.5
2015-12-24T08:20:21.555Z,1015.7
2015-12-24T08:21:21.604Z,1015.5
2015-12-24T08:22:21.465Z,1015.6
2015-12-24T08:23:21.390Z,1015.5
2015-12-24T08:24:21.440Z,1015.6
2015-12-24T08:25:21.287Z,1015.8
2015-12-24T08:26:21.414Z,1015.8
2015-12-24T08:27:21.402Z,1015.6
2015-12-24T08:28:21.576Z,1015.7
2015-12-24T08:29:21.204Z,1015.8
2015-12-24T08:30:21.003Z,1015.7
2015-12-24T08:31:21.131Z,1015.7
2015-12-24T08:32:20.883Z,1015.7
2015-12-24T08:33:20.856Z,1015.8
2015-12-24T08:34:20.795Z,1015.8
2015-12-24T08:35:21.283Z,1015.7
2015-12-24T08:36:20.661Z,1015.9
2015-12-24T08:37:20.616Z,1015.9
2015-12-24T08:38:20.572Z,1015.8
2015-12-24T08:39:20.497Z,1015.8
2015-12-24T08:40:20.437Z,1015.8
2015-12-24T08:41:20.378Z,1015.7
2015-12-24T08:42:20.348Z,1015.8
2015-12-24T08:43:20.475Z,1015.8
2015-12-24T08:44:20.214Z,1015.7
2015-12-24T08:45:20.170Z,1015.2
2015-12-24T08:46:20.109Z,1015.1
2015-12-24T08:47:20.066Z,1015.1
2015-12-24T08:48:20.036Z,1015.2
2015-12-24T08:49:19.946Z,1015
2015-12-24T08:50:19.902Z,1014.9
2015-12-24T08:51:19.826Z,1014.9
2015-12-24T08:52:20.000Z,1014.9
2015-12-24T08:53:19.739Z,1014.9
2015-12-24T08:54:19.678Z,1014.8
2015-12-24T08:55:19.666Z,1015
2015-12-24T08:56:19.622Z,1014.9
2015-12-24T08:57:19.530Z,1015
2015-12-24T08:58:19.471Z,1015
2015-12-24T08:59:19.630Z,1014.8
2015-12-24T09:00:19.554Z,1014.9
2015-12-24T09:01:19.307Z,1014.9
2015-12-24T09:02:19.278Z,1014.9
2015-12-24T09:03:19.203Z,1015.1
2015-12-24T09:04:19.158Z,1015.4
2015-12-24T09:05:19.161Z,1014.8
2015-12-24T09:06:19.071Z,1014.8
2015-12-24T09:07:19.041Z,1014.9
2015-12-24T09:08:18.948Z,1014.9
2015-12-24T09:09:19.107Z,1015
2015-12-24T09:10:18.860Z,1015.1
2015-12-24T09:11:18.815Z,1015
2015-12-24T09:12:18.990Z,1014.8
2015-12-24T09:13:18.930Z,1014.8
2015-12-24T09:14:18.668Z,1015.4
2015-12-24T09:15:18.607Z,1015.5
2015-12-24T09:16:18.548Z,1015.4
2015-12-24T09:17:18.505Z,1015.3
2015-12-24T09:18:18.476Z,1015.5
2015-12-24T09:19:18.432Z,1015.5
2015-12-24T09:20:18.560Z,1015.3
2015-12-24T09:21:18.281Z,1015
2015-12-24T09:22:18.237Z,1015.3
2015-12-24T09:23:18.193Z,1015.1
2015-12-24T09:24:18.133Z,1014.7
2015-12-24T09:25:18.088Z,1014.6
2015-12-24T09:26:18.232Z,1014.5
2015-12-24T09:27:17.985Z,1014.5
2015-12-24T09:28:17.940Z,1014.4
2015-12-24T09:29:17.881Z,1014.3
2015-12-24T09:30:18.024Z,1014.5
2015-12-24T09:31:17.777Z,1014.4
2015-12-24T09:32:17.748Z,1015.1
2015-12-24T09:33:17.689Z,1015.3
2015-12-24T09:34:17.629Z,1014.7
2015-12-24T09:35:17.585Z,1014.2
2015-12-24T09:36:17.541Z,1014.6
2015-12-24T09:37:17.481Z,1014.7
2015-12-24T09:38:17.420Z,1014.3
2015-12-24T09:39:17.393Z,1014.3
2015-12-24T09:40:17.739Z,1014.2
2015-12-24T09:41:17.273Z,1014.6
2015-12-24T09:42:17.464Z,1015.2
2015-12-24T09:43:17.169Z,1015.2
2015-12-24T09:44:17.141Z,1014.5
2015-12-24T09:45:17.065Z,1014.3
2015-12-24T09:46:17.021Z,1014.2
2015-12-24T09:47:16.961Z,1014.3
2015-12-24T09:48:16.933Z,1014
2015-12-24T09:49:16.873Z,1014.1
2015-12-24T09:50:16.814Z,1014.1
2015-12-24T09:51:16.754Z,1014
2015-12-24T09:52:16.709Z,1013.9
2015-12-24T09:53:16.680Z,1014
2015-12-24T09:54:16.621Z,1014.1
2015-12-24T09:55:16.605Z,1014.1
2015-12-24T09:56:16.514Z,1014.2
2015-12-24T09:57:16.533Z,1014.1
2015-12-24T09:58:16.411Z,1014.2
2015-12-24T09:59:16.367Z,1014
2015-12-24T10:00:16.322Z,1014
2015-12-24T10:01:16.295Z,1014.1
2015-12-24T10:02:16.219Z,1014.4
2015-12-24T10:03:16.174Z,1014.5
2015-12-24T10:04:16.115Z,1014.4
2015-12-24T10:05:16.086Z,1014.5
2015-12-24T10:09:15.957Z,1014.4
2015-12-24T10:10:16.084Z,1014.4
2015-12-24T10:11:15.806Z,1014.3
2015-12-24T10:12:15.794Z,1014.3
2015-12-24T10:13:15.686Z,1014.3
2015-12-24T10:14:15.658Z,1014.4
2015-12-24T10:15:15.583Z,1014.3
2015-12-24T10:16:15.554Z,1014.3
2015-12-24T10:17:15.494Z,1014.1
2015-12-24T10:18:15.278Z,1013.9
2015-12-24T10:19:15.375Z,1013.7
2015-12-24T10:20:15.330Z,1013.6
2015-12-24T10:21:15.271Z,1013.6
2015-12-24T10:22:15.210Z,1013.5
2015-12-24T10:23:15.167Z,1013.5
2015-12-24T10:24:15.122Z,1013.5
2015-12-24T10:25:15.094Z,1013.6
2015-12-24T10:26:15.019Z,1013.5
2015-12-24T10:27:14.974Z,1013.5
2015-12-24T10:28:14.946Z,1013.4
2015-12-24T10:29:14.901Z,1013.2
2015-12-24T10:30:14.826Z,1013.2
2015-12-24T10:31:14.751Z,1013.4
2015-12-24T10:32:14.738Z,1013.3
2015-12-24T10:33:14.679Z,1013.3
2015-12-24T10:34:14.650Z,1013.3
2015-12-24T10:35:14.574Z,1013.3
2015-12-24T10:36:14.515Z,1013.2
2015-12-24T10:37:14.471Z,1013.2
2015-12-24T10:38:14.458Z,1013.1
2015-12-24T10:39:13.617Z,1013.1
2015-12-24T10:40:14.557Z,1014
2015-12-24T10:41:14.294Z,1013.5
2015-12-24T10:42:14.251Z,1013
2015-12-24T10:43:14.206Z,1013
2015-12-24T10:44:14.302Z,1013.3
2015-12-24T10:45:14.118Z,1013.8
2015-12-24T10:46:14.479Z,1014
2015-12-24T10:47:14.026Z,1013.9
2015-12-24T10:48:13.951Z,1014.1
2015-12-24T10:49:13.923Z,1014.1
2015-12-24T10:50:13.863Z,1014.1
2015-12-24T10:51:13.834Z,1014.1
2015-12-24T10:52:13.759Z,1014
2015-12-24T10:53:13.715Z,1014.1
2015-12-24T10:54:13.687Z,1014.1
2015-12-24T10:55:13.611Z,1014.2
2015-12-24T10:56:13.536Z,1014.1
2015-12-24T10:57:13.492Z,1014
2015-12-24T10:58:13.447Z,1013.9
2015-12-24T10:59:13.419Z,1013.6
2015-12-24T11:00:13.329Z,1013.2
2015-12-24T11:01:13.283Z,1012.9
2015-12-24T11:02:13.256Z,1012.8
2015-12-24T11:03:13.212Z,1012.6
2015-12-24T11:04:13.120Z,1012.6
2015-12-24T11:05:13.092Z,1012.5
2015-12-24T11:06:13.032Z,1012.5
2015-12-24T11:07:12.987Z,1012.4
2015-12-24T11:08:12.959Z,1012.4
2015-12-24T11:09:12.884Z,1012.3
2015-12-24T11:10:13.059Z,1012.3
2015-12-24T11:11:12.811Z,1012.7
2015-12-24T11:12:12.767Z,1012.9
2015-12-24T11:13:12.707Z,1013.3
2015-12-24T11:14:12.663Z,1013.5
2015-12-24T11:15:12.697Z,1013.5
2015-12-24T11:16:12.622Z,1013.6
2015-12-24T11:17:12.499Z,1013.6
2015-12-24T11:18:12.705Z,1013.7
2015-12-24T11:19:12.396Z,1013.6
2015-12-24T11:20:12.382Z,1013.7
2015-12-24T11:21:12.339Z,1013.7
2015-12-24T11:22:12.264Z,1013.6
2015-12-24T11:23:12.188Z,1013.6
2015-12-24T11:24:12.191Z,1013.7
2015-12-24T11:25:12.099Z,1013.3
2015-12-24T11:26:12.087Z,1013.7
2015-12-24T11:27:11.980Z,1013.6
2015-12-24T11:28:11.936Z,1013.6
2015-12-24T11:29:11.922Z,1013.2
2015-12-24T11:30:11.833Z,1013.2
2015-12-24T11:31:11.882Z,1013.6
2015-12-24T11:32:11.760Z,1013.6
2015-12-24T11:33:11.700Z,1013.6
2015-12-24T11:34:11.606Z,1013.7
2015-12-24T11:35:11.577Z,1013.7
2015-12-24T11:36:11.533Z,1013.3
2015-12-24T11:37:11.473Z,1013.4
2015-12-24T11:38:11.399Z,1013.4
2015-12-24T11:39:11.369Z,1013.2
2015-12-24T11:40:11.496Z,1012.9
2015-12-24T11:41:11.249Z,1012.5
2015-12-24T11:42:11.252Z,1012.3
2015-12-24T11:43:11.380Z,1012
2015-12-24T11:44:11.102Z,1011.7
2015-12-24T11:45:11.043Z,1011.7
2015-12-24T11:46:10.998Z,1011.6
2015-12-24T11:47:10.937Z,1011.6
2015-12-24T11:48:10.910Z,1011.6
2015-12-24T11:49:10.834Z,1011.5
2015-12-24T11:50:11.024Z,1011.4
2015-12-24T11:51:10.746Z,1011.4
2015-12-24T11:52:10.904Z,1011.5
2015-12-24T11:53:10.642Z,1011.5
2015-12-24T11:54:10.613Z,1011.6
2015-12-24T11:55:10.570Z,1011.8
2015-12-24T11:56:10.509Z,1011.8
2015-12-24T11:57:10.590Z,1011.7
2015-12-24T11:58:10.609Z,1011.7
2015-12-24T11:59:10.361Z,1011.5
2015-12-24T12:00:10.504Z,1011.5
2015-12-24T12:01:10.273Z,1011.5
2015-12-24T12:02:10.213Z,1011.5
2015-12-24T12:03:10.200Z,1011.5
2015-12-24T12:04:10.328Z,1011.4
2015-12-24T12:05:10.081Z,1011.4
2015-12-24T12:06:10.052Z,1011.4
2015-12-24T12:07:09.977Z,1011.4
2015-12-24T12:08:09.963Z,1011.5
2015-12-24T12:09:09.888Z,1011.6
2015-12-24T12:10:09.844Z,1011.5
2015-12-24T12:11:09.783Z,1011.6
2015-12-24T12:12:09.740Z,1011.6
2015-12-24T12:13:09.679Z,1011.7
2015-12-24T12:14:09.683Z,1012.6
2015-12-24T12:15:09.811Z,1012.7
2015-12-24T12:16:09.533Z,1011.7
2015-12-24T12:17:09.472Z,1012.6
2015-12-24T12:18:09.428Z,1012.9
2015-12-24T12:19:09.400Z,1012.4
2015-12-24T12:20:09.324Z,1012.7
2015-12-24T12:21:09.280Z,1012.1
2015-12-24T12:22:08.470Z,1012.8
2015-12-24T12:23:09.175Z,1012.8
2015-12-24T12:24:09.115Z,1012.7
2015-12-24T12:25:09.103Z,1012.7
2015-12-24T12:26:09.028Z,1012.5
2015-12-24T12:27:08.202Z,1012.8
2015-12-24T12:28:08.924Z,1011.8
2015-12-24T12:29:08.864Z,1011.7
2015-12-24T12:30:08.804Z,1011.3
2015-12-24T12:31:08.776Z,1011.9
2015-12-24T12:32:08.700Z,1012.5
2015-12-24T12:33:08.673Z,1011.7
2015-12-24T12:34:08.612Z,1012
2015-12-24T12:35:08.568Z,1012.3
2015-12-24T12:36:08.509Z,1012.4